Terminal Aerodrome Forecast
Issued by NWS

Home | Current Version | Previous Version | Text Only | Print | Product List | Glossary On
Versions: 1 2 3 4 5 6 7 8 9 10 11 12 13 14 15 16 17 18 19 20 21 22 23 24 25 26 27 28
086
FTUS43 KDLH 281738
TAFHYR
TAF
KHYR 281738Z 2818/2918 23010G18KT P6SM VCSH FEW025 BKN070
     FM290000 28008KT P6SM VCSH BKN080
     FM290300 VRB03KT P6SM BKN080
     FM290800 26004KT P6SM BKN015
     FM291000 26007KT P6SM VCSH OVC008=

USA.gov is the U.S. government's official web portal to all federal, state and local government web resources and services.